Time;durP1;ratioP1;P1;durP2;ratioP2;P2;SDS_P1;SDS_P2;PMS_P1;PMS_P2;Temp;Humidity;BMP_temperature;BMP_pressure;BME280_temperature;BME280_humidity;BME280_pressure;Samples;Min_cycle;Max_cycle;Signal;HPM_P1;HPM_P2
2022/08/30 00:01:07;;;;;;;5.88;3.90;;;;;;;13.76;100.00;102015.97;1247610;23;20020;-92
2022/08/30 00:01:44;;;;;;;4.63;4.22;;;;;;;13.72;100.00;102020.09;1242570;23;20023;-92
2022/08/30 00:02:16;;;;;;;6.43;4.53;;;;;;;13.71;100.00;102015.78;1254245;23;20023;-92
2022/08/30 00:02:48;;;;;;;6.10;3.95;;;;;;;13.72;100.00;102020.09;1236507;24;20347;-93
2022/08/30 00:03:20;;;;;;;5.03;4.07;;;;;;;13.65;100.00;102027.28;1248112;23;20022;-91
2022/08/30 00:03:53;;;;;;;5.70;3.35;;;;;;;13.65;100.00;102024.59;1238715;24;20348;-92
2022/08/30 00:04:25;;;;;;;5.70;3.88;;;;;;;13.72;100.00;102019.28;1242310;23;20075;-92
2022/08/30 00:05:00;;;;;;;5.85;4.95;;;;;;;13.68;100.00;102018.84;1242335;23;20460;-91
2022/08/30 00:05:32;;;;;;;5.20;4.70;;;;;;;13.71;100.00;102022.97;1236438;24;20016;-91
2022/08/30 00:06:05;;;;;;;6.85;5.55;;;;;;;13.74;100.00;102020.72;1244512;23;20020;-92
2022/08/30 00:06:37;;;;;;;4.50;4.10;;;;;;;13.71;100.00;102020.31;1253902;23;20332;-92
2022/08/30 00:07:08;;;;;;;10.05;5.05;;;;;;;13.69;100.00;102025.84;1260073;23;20262;-92
2022/08/30 00:07:40;;;;;;;5.05;4.18;;;;;;;13.70;100.00;102015.97;1266222;23;20022;-91
2022/08/30 00:08:12;;;;;;;5.93;4.70;;;;;;;13.66;100.00;102026.25;1260141;23;20022;-91
2022/08/30 00:08:44;;;;;;;4.70;4.13;;;;;;;13.66;100.00;102023.56;1254134;23;20026;-91
2022/08/30 00:09:16;;;;;;;8.75;4.50;;;;;;;13.63;100.00;102021.31;1253981;23;20019;-92
2022/08/30 00:09:48;;;;;;;5.65;4.15;;;;;;;13.59;100.00;102025.44;1268247;23;20010;-91
2022/08/30 00:10:20;;;;;;;4.88;4.07;;;;;;;13.54;100.00;102019.88;1254179;23;20022;-91
2022/08/30 00:10:52;;;;;;;4.68;4.20;;;;;;;13.51;100.00;102022.97;1254123;23;20022;-92
2022/08/30 00:11:26;;;;;;;4.95;4.55;;;;;;;13.54;100.00;102022.56;1260072;23;20025;-92
2022/08/30 00:11:58;;;;;;;5.32;4.30;;;;;;;13.56;100.00;102020.50;1250149;23;20027;-91
2022/08/30 00:12:31;;;;;;;6.75;4.50;;;;;;;13.61;100.00;102020.69;1248169;23;20370;-92
2022/08/30 00:13:05;;;;;;;5.07;4.57;;;;;;;13.64;100.00;102017.59;1254068;23;20351;-92
2022/08/30 00:13:37;;;;;;;7.32;4.75;;;;;;;13.62;100.00;102022.34;1260016;23;20026;-92
2022/08/30 00:14:09;;;;;;;6.15;4.60;;;;;;;13.61;100.00;102021.53;1248195;23;20019;-92
2022/08/30 00:14:40;;;;;;;5.47;4.95;;;;;;;13.62;100.00;102022.34;1248259;23;20027;-92
2022/08/30 00:15:12;;;;;;;7.38;4.15;;;;;;;13.65;100.00;102021.94;1265960;23;20022;-92
2022/08/30 00:15:45;;;;;;;5.75;4.28;;;;;;;13.63;100.00;102020.50;1260043;23;20339;-91
2022/08/30 00:16:19;;;;;;;6.38;5.32;;;;;;;13.61;100.00;102018.84;1248067;23;20020;-92
2022/08/30 00:16:50;;;;;;;8.15;4.07;;;;;;;13.59;100.00;102014.72;1242321;23;20024;-92
2022/08/30 00:17:22;;;;;;;10.20;5.25;;;;;;;13.58;100.00;102026.47;1248144;23;20023;-92
2022/08/30 00:17:54;;;;;;;6.65;4.97;;;;;;;13.58;100.00;102024.63;1254112;23;20015;-91
2022/08/30 00:18:26;;;;;;;4.95;4.45;;;;;;;13.58;100.00;102018.44;1254047;23;20015;-92
2022/08/30 00:18:57;;;;;;;5.43;4.93;;;;;;;13.61;100.00;102018.03;1248172;23;20046;-92
2022/08/30 00:19:29;;;;;;;5.65;5.15;;;;;;;13.66;100.00;102015.53;1248090;23;20019;-92
2022/08/30 00:20:01;;;;;;;4.47;4.15;;;;;;;13.66;100.00;102020.91;1254045;23;20018;-92
2022/08/30 00:20:34;;;;;;;5.03;4.47;;;;;;;13.68;100.00;102028.72;1260002;23;20019;-92
2022/08/30 00:21:07;;;;;;;5.63;4.85;;;;;;;13.69;100.00;102019.66;1248185;23;20019;-92
2022/08/30 00:21:39;;;;;;;11.10;5.00;;;;;;;13.71;100.00;102020.31;1247941;23;20027;-92
2022/08/30 00:22:11;;;;;;;4.80;4.28;;;;;;;13.71;100.00;102017.63;1248266;23;20015;-92
2022/08/30 00:22:43;;;;;;;7.43;4.53;;;;;;;13.76;100.00;102021.31;1254020;23;20026;-92
2022/08/30 00:23:16;;;;;;;4.72;4.25;;;;;;;13.72;100.00;102025.44;1254194;23;20019;-92
2022/08/30 00:23:48;;;;;;;4.90;4.25;;;;;;;13.74;100.00;102023.38;1254013;23;20440;-91
2022/08/30 00:24:20;;;;;;;4.90;4.40;;;;;;;13.73;100.00;102021.75;1259962;23;20382;-93
2022/08/30 00:24:51;;;;;;;7.72;5.72;;;;;;;13.77;100.00;102017.59;1248160;23;20052;-92
2022/08/30 00:25:23;;;;;;;5.10;4.53;;;;;;;13.80;100.00;102017.19;1248242;23;20026;-92
2022/08/30 00:25:55;;;;;;;5.15;4.57;;;;;;;13.80;100.00;102032.44;1248065;23;20023;-92
2022/08/30 00:26:26;;;;;;;6.75;4.60;;;;;;;13.83;100.00;102022.13;1254030;23;20105;-92
2022/08/30 00:26:58;;;;;;;5.13;4.63;;;;;;;13.87;100.00;102023.34;1248156;23;20027;-92
2022/08/30 00:27:30;;;;;;;7.75;4.90;;;;;;;13.90;100.00;102022.94;1248163;23;20019;-92
2022/08/30 00:28:02;;;;;;;5.50;4.30;;;;;;;13.87;100.00;102028.69;1256315;23;20019;-93
2022/08/30 00:28:34;;;;;;;8.98;5.13;;;;;;;13.83;100.00;102024.81;1242268;23;20024;-92
2022/08/30 00:29:08;;;;;;;4.43;4.03;;;;;;;13.84;100.00;102018.41;1260052;23;20018;-91
2022/08/30 00:29:40;;;;;;;10.38;4.40;;;;;;;13.83;100.00;102019.44;1259717;23;20022;-91
2022/08/30 00:30:12;;;;;;;4.18;3.80;;;;;;;13.79;100.00;102022.75;1259983;23;20270;-92
2022/08/30 00:30:45;;;;;;;6.35;4.50;;;;;;;13.81;100.00;102020.69;1254015;23;20030;-92
2022/08/30 00:31:16;;;;;;;5.55;4.32;;;;;;;13.78;100.00;102018.44;1259945;23;20040;-91
2022/08/30 00:31:48;;;;;;;8.15;3.88;;;;;;;13.79;100.00;102015.53;1248073;23;20071;-92
2022/08/30 00:32:20;;;;;;;7.63;4.32;;;;;;;13.84;100.00;102023.78;1248105;23;20016;-92
2022/08/30 00:32:52;;;;;;;8.45;5.32;;;;;;;13.84;100.00;102025.63;1242355;23;20020;-92
2022/08/30 00:33:24;;;;;;;6.75;4.63;;;;;;;13.84;100.00;102021.09;1248189;23;20080;-92
2022/08/30 00:33:56;;;;;;;11.68;4.47;;;;;;;13.83;100.00;102022.13;1260098;23;20025;-91
2022/08/30 00:34:27;;;;;;;6.60;4.78;;;;;;;13.92;100.00;102014.69;1248144;23;20031;-92
2022/08/30 00:34:59;;;;;;;4.75;4.28;;;;;;;13.91;100.00;102023.75;1256227;23;20019;-91
2022/08/30 00:35:30;;;;;;;23.83;5.10;;;;;;;13.89;100.00;102015.94;1254052;23;20026;-93
2022/08/30 00:36:02;;;;;;;4.80;4.30;;;;;;;13.84;100.00;102017.59;1248139;23;20019;-92
2022/08/30 00:36:34;;;;;;;4.38;3.70;;;;;;;13.81;100.00;102024.19;1248106;23;20019;-92
2022/08/30 00:37:05;;;;;;;4.40;3.75;;;;;;;13.78;100.00;102027.28;1256170;23;20065;-92
2022/08/30 00:37:37;;;;;;;9.43;4.32;;;;;;;13.78;100.00;102021.09;1248070;23;20026;-92
2022/08/30 00:38:11;;;;;;;7.38;6.35;;;;;;;13.78;100.00;102018.44;1266137;23;20014;-92
2022/08/30 00:38:42;;;;;;;8.35;3.63;;;;;;;13.80;100.00;102021.72;1254040;23;20023;-92
2022/08/30 00:39:14;;;;;;;4.75;4.32;;;;;;;13.78;100.00;102024.59;1254096;23;20026;-91
2022/08/30 00:39:46;;;;;;;4.88;4.03;;;;;;;13.76;100.00;102021.31;1254171;23;20019;-92
2022/08/30 00:40:19;;;;;;;7.93;4.00;;;;;;;13.78;100.00;102021.94;1248056;23;20026;-91
2022/08/30 00:40:58;;;;;;;11.05;5.50;;;;;;;13.77;100.00;102017.59;1242413;23;20031;-92
2022/08/30 00:46:31;;;;;;;6.35;4.75;;;;;;;13.81;100.00;102013.47;1274650;23;20012;-92
2022/08/30 00:47:03;;;;;;;7.68;4.00;;;;;;;13.78;100.00;102013.06;1266016;23;20022;-91
2022/08/30 00:47:34;;;;;;;4.75;4.10;;;;;;;13.73;100.00;102008.34;1253972;23;20673;-92
2022/08/30 00:48:06;;;;;;;7.53;4.68;;;;;;;13.74;100.00;102018.03;1254163;23;20119;-92
2022/08/30 00:48:41;;;;;;;4.47;3.97;;;;;;;13.69;100.00;102015.13;1259845;23;20026;-92
2022/08/30 00:49:13;;;;;;;4.78;3.90;;;;;;;13.69;100.00;102015.13;1259838;23;20025;-92
2022/08/30 00:49:47;;;;;;;4.18;3.78;;;;;;;13.64;100.00;102012.25;1248134;23;20023;-92
2022/08/30 00:50:21;;;;;;;4.03;3.72;;;;;;;13.70;100.00;102011.44;1262086;23;20015;-92
2022/08/30 00:50:59;;;;;;;5.32;4.20;;;;;;;13.69;100.00;102016.97;1260058;23;20010;-92
2022/08/30 00:51:32;;;;;;;4.72;4.32;;;;;;;13.64;100.00;102012.25;1256288;23;20015;-92
2022/08/30 00:52:04;;;;;;;6.72;4.05;;;;;;;13.63;100.00;102015.97;1262169;23;20021;-91
2022/08/30 00:52:40;;;;;;;4.72;4.20;;;;;;;13.64;100.00;102011.44;1254086;23;20026;-92
2022/08/30 00:53:16;;;;;;;4.47;4.07;;;;;;;13.66;100.00;102020.91;1254017;23;20018;-92
2022/08/30 00:53:53;;;;;;;5.00;4.50;;;;;;;13.64;100.00;102011.44;1259973;23;20018;-92
2022/08/30 00:54:26;;;;;;;4.93;4.53;;;;;;;13.60;100.00;102016.38;1256252;23;20086;-92
2022/08/30 00:54:58;;;;;;;5.05;3.92;;;;;;;13.61;100.00;102018.84;1248146;23;20280;-91
2022/08/30 00:55:29;;;;;;;4.30;3.92;;;;;;;13.56;100.00;102020.50;1259891;23;20018;-92
2022/08/30 00:56:02;;;;;;;4.60;4.18;;;;;;;13.56;100.00;102015.16;1254048;23;20275;-92
2022/08/30 00:56:34;;;;;;;9.23;4.40;;;;;;;13.57;100.00;102014.94;1248165;23;20353;-92
2022/08/30 00:57:06;;;;;;;4.05;3.75;;;;;;;13.58;100.00;102013.91;1254079;23;20620;-91
2022/08/30 00:57:37;;;;;;;5.25;4.30;;;;;;;13.47;100.00;102019.06;1248155;23;20052;-92
2022/08/30 00:58:12;;;;;;;8.35;4.32;;;;;;;13.42;100.00;102013.50;1253940;23;20022;-92
2022/08/30 00:58:48;;;;;;;5.82;4.07;;;;;;;13.40;100.00;102015.56;1248030;23;20030;-93
2022/08/30 00:59:20;;;;;;;6.03;3.97;;;;;;;13.39;100.00;102019.25;1259925;23;20348;-92
2022/08/30 00:59:52;;;;;;;4.47;3.95;;;;;;;13.38;100.00;102012.25;1262118;23;20010;-91
2022/08/30 01:00:25;;;;;;;5.47;4.00;;;;;;;13.41;100.00;102022.56;1248136;23;20015;-91
2022/08/30 01:00:57;;;;;;;4.88;4.47;;;;;;;13.40;100.00;102018.22;1254033;23;20022;-91
2022/08/30 01:01:31;;;;;;;5.10;4.55;;;;;;;13.42;100.00;102016.16;1253923;23;20635;-91
2022/08/30 01:02:04;;;;;;;5.25;4.18;;;;;;;13.44;100.00;102017.66;1250210;23;20023;-92
2022/08/30 01:02:36;;;;;;;5.95;4.93;;;;;;;13.46;100.00;102014.75;1254077;23;20049;-92
2022/08/30 01:03:08;;;;;;;4.55;4.15;;;;;;;13.44;100.00;102012.28;1262136;23;20014;-91
2022/08/30 01:03:42;;;;;;;5.55;5.05;;;;;;;13.47;100.00;102016.41;1248010;23;20089;-92
2022/08/30 01:04:14;;;;;;;4.85;4.40;;;;;;;13.48;100.00;102013.53;1259771;23;20019;-91
2022/08/30 01:04:45;;;;;;;5.05;4.65;;;;;;;13.48;100.00;102018.88;1254017;23;20281;-91
2022/08/30 01:05:18;;;;;;;8.63;5.07;;;;;;;13.47;100.00;102019.06;1256085;23;20258;-91
2022/08/30 01:05:50;;;;;;;5.15;4.32;;;;;;;13.50;100.00;102010.63;1254027;23;20019;-91
2022/08/30 01:06:22;;;;;;;7.32;4.55;;;;;;;13.52;100.00;102016.59;1265797;23;20022;-91
2022/08/30 01:06:53;;;;;;;14.68;5.57;;;;;;;13.54;100.00;102017.22;1259973;23;20356;-91
2022/08/30 01:07:25;;;;;;;27.40;7.65;;;;;;;13.50;100.00;102015.97;1261879;23;20014;-92
2022/08/30 01:07:58;;;;;;;99.10;17.77;;;;;;;13.52;100.00;102019.28;1242209;23;20020;-92
2022/08/30 01:08:30;;;;;;;103.32;13.73;;;;;;;13.46;100.00;102025.47;1248173;23;20016;-92
2022/08/30 01:09:03;;;;;;;69.30;13.75;;;;;;;13.47;100.00;102024.44;1248052;23;20019;-92
2022/08/30 01:09:35;;;;;;;28.73;8.40;;;;;;;13.48;100.00;102018.06;1256168;23;20014;-91
2022/08/30 01:10:10;;;;;;;34.72;9.27;;;;;;;13.50;100.00;102022.16;1247927;23;20345;-93
2022/08/30 01:10:42;;;;;;;37.80;9.93;;;;;;;13.49;100.00;102027.72;1256061;23;20018;-92
2022/08/30 01:11:17;;;;;;;24.52;6.07;;;;;;;13.47;100.00;102027.09;1248144;23;20015;-91
2022/08/30 01:11:49;;;;;;;24.27;7.22;;;;;;;13.46;100.00;102020.94;1253959;23;20019;-92
2022/08/30 01:12:22;;;;;;;10.73;5.53;;;;;;;13.44;100.00;102028.34;1259922;23;20014;-92
2022/08/30 01:12:53;;;;;;;9.88;5.82;;;;;;;13.47;100.00;102021.75;1253903;23;20018;-91
2022/08/30 01:13:25;;;;;;;5.20;4.70;;;;;;;13.43;100.00;102023.19;1248010;23;20357;-92
2022/08/30 01:13:57;;;;;;;5.00;4.30;;;;;;;13.44;100.00;102027.53;1259911;23;20018;-91
2022/08/30 01:14:32;;;;;;;15.93;5.60;;;;;;;13.43;100.00;102026.69;1259850;23;20015;-92
2022/08/30 01:15:04;;;;;;;27.30;6.32;;;;;;;13.46;100.00;102020.94;1248073;23;20098;-91
2022/08/30 01:15:36;;;;;;;16.55;6.35;;;;;;;13.48;100.00;102028.75;1261972;23;20030;-91
2022/08/30 01:16:09;;;;;;;17.90;6.40;;;;;;;13.45;100.00;102029.16;1253870;23;20022;-91
2022/08/30 01:16:42;;;;;;;6.50;5.00;;;;;;;13.47;100.00;102027.09;1247978;23;20102;-92
2022/08/30 01:17:14;;;;;;;12.43;5.43;;;;;;;13.46;100.00;102030.81;1259717;23;20278;-90
2022/08/30 01:17:48;;;;;;;9.27;5.25;;;;;;;13.43;100.00;102031.22;1259888;23;20029;-91
2022/08/30 01:18:20;;;;;;;10.48;5.68;;;;;;;13.38;100.00;102023.78;1253919;23;20018;-92
2022/08/30 01:18:55;;;;;;;8.75;3.97;;;;;;;13.35;100.00;102028.75;1250023;23;20022;-91
2022/08/30 01:19:44;;;;;;;9.18;4.78;;;;;;;13.39;100.00;102029.97;1253828;23;20025;-92
2022/08/30 01:20:23;;;;;;;5.72;4.13;;;;;;;13.36;100.00;102025.84;1248021;23;20015;-91
2022/08/30 01:21:14;;;;;;;6.88;5.32;;;;;;;13.40;100.00;102031.63;1253980;23;20014;-91
2022/08/30 01:21:56;;;;;;;5.28;4.78;;;;;;;13.37;100.00;102035.53;1253895;23;20384;-91
2022/08/30 01:22:41;;;;;;;9.30;4.80;;;;;;;13.36;100.00;102038.41;1254030;23;20021;-91
2022/08/30 01:23:17;;;;;;;5.38;4.35;;;;;;;13.36;100.00;102035.72;1259890;23;20057;-92
2022/08/30 01:23:52;;;;;;;4.72;4.30;;;;;;;13.37;100.00;102040.88;1256107;23;20089;-91
2022/08/30 01:24:24;;;;;;;6.35;4.28;;;;;;;13.33;100.00;102036.16;1259826;23;20278;-92
2022/08/30 01:24:58;;;;;;;7.25;4.32;;;;;;;13.33;100.00;102036.16;1253849;23;20267;-91
2022/08/30 01:25:30;;;;;;;10.52;5.13;;;;;;;13.37;100.00;102038.19;1242096;23;20020;-91
2022/08/30 01:26:04;;;;;;;5.40;4.07;;;;;;;13.43;100.00;102036.59;1259726;23;20018;-91
2022/08/30 01:26:36;;;;;;;5.07;4.68;;;;;;;13.38;100.00;102039.03;1259886;23;20030;-92
2022/08/30 01:27:07;;;;;;;13.13;4.60;;;;;;;13.36;100.00;102041.09;1253817;23;20355;-91
2022/08/30 01:27:43;;;;;;;14.38;5.78;;;;;;;13.38;100.00;102039.03;1253885;23;20030;-91
2022/08/30 01:28:21;;;;;;;9.45;4.32;;;;;;;13.35;100.00;102034.91;1253852;23;20025;-90
2022/08/30 01:28:56;;;;;;;12.70;4.53;;;;;;;13.36;100.00;102033.06;1261924;23;20021;-91
2022/08/30 01:29:28;;;;;;;4.55;4.15;;;;;;;13.39;100.00;102038.00;1253788;23;20047;-91
2022/08/30 01:30:00;;;;;;;5.28;4.35;;;;;;;13.39;100.00;102038.00;1248288;23;20024;-91
2022/08/30 01:30:32;;;;;;;7.15;5.43;;;;;;;13.36;100.00;102033.88;1253665;23;20014;-91
2022/08/30 01:31:04;;;;;;;12.35;5.25;;;;;;;13.33;100.00;102036.16;1248261;23;20160;-91
2022/08/30 01:31:36;;;;;;;4.88;4.47;;;;;;;13.40;100.00;102037.78;1247960;23;20494;-91
2022/08/30 01:32:15;;;;;;;5.07;4.68;;;;;;;13.40;100.00;102037.78;1247915;23;20026;-92
2022/08/30 01:32:57;;;;;;;4.40;3.97;;;;;;;13.36;100.00;102041.09;1259701;23;20100;-92
2022/08/30 01:33:29;;;;;;;5.60;4.43;;;;;;;13.42;100.00;102032.22;1259534;23;20022;-92
2022/08/30 01:34:01;;;;;;;6.25;4.68;;;;;;;13.39;100.00;102032.66;1253964;23;20019;-92
2022/08/30 01:34:32;;;;;;;5.65;5.05;;;;;;;13.35;100.00;102034.91;1247813;23;20611;-92
2022/08/30 01:35:04;;;;;;;10.30;7.25;;;;;;;13.32;100.00;102034.50;1248112;23;20023;-92
2022/08/30 01:35:59;;;;;;;16.48;5.13;;;;;;;13.34;100.00;102033.25;1254031;23;20023;-92
2022/08/30 01:36:30;;;;;;;15.93;5.25;;;;;;;13.33;100.00;102036.97;1247877;23;20680;-92
2022/08/30 01:37:02;;;;;;;39.40;6.47;;;;;;;13.28;100.00;102037.59;1243660;23;20256;-93
2022/08/30 01:37:35;;;;;;;25.45;5.75;;;;;;;13.24;100.00;102040.88;1241977;23;20016;-94
2022/08/30 01:38:07;;;;;;;16.45;6.55;;;;;;;13.24;100.00;102047.06;1242138;23;20272;-92
2022/08/30 01:38:42;;;;;;;6.63;4.97;;;;;;;13.19;100.00;102041.50;1248287;23;20046;-92
2022/08/30 01:39:16;;;;;;;14.88;4.80;;;;;;;13.21;100.00;102038.63;1248090;23;20033;-93
2022/08/30 01:39:47;;;;;;;12.80;6.00;;;;;;;13.26;100.00;102047.69;1248342;23;20026;-93
2022/08/30 01:40:19;;;;;;;13.77;5.85;;;;;;;13.26;100.00;102033.47;1244343;23;20267;-92
2022/08/30 01:40:59;;;;;;;6.00;4.80;;;;;;;13.23;100.00;102037.38;1247980;23;20022;-92
2022/08/30 01:41:33;;;;;;;17.40;5.28;;;;;;;13.21;100.00;102033.28;1253732;23;20347;-92
2022/08/30 01:42:05;;;;;;;19.83;5.80;;;;;;;13.21;100.00;102042.13;1247912;23;20368;-93
2022/08/30 01:42:37;;;;;;;28.13;6.65;;;;;;;13.23;100.00;102042.75;1241967;23;20020;-92
2022/08/30 01:43:11;;;;;;;19.10;6.22;;;;;;;13.23;100.00;102036.56;1242124;23;20019;-92
2022/08/30 01:43:43;;;;;;;22.38;6.03;;;;;;;13.25;100.00;102038.00;1253539;23;20023;-92
2022/08/30 01:44:15;;;;;;;12.90;5.80;;;;;;;13.27;100.00;102035.94;1259525;23;20742;-93
2022/08/30 01:44:47;;;;;;;7.65;4.78;;;;;;;13.26;100.00;102036.97;1253870;23;20019;-92
2022/08/30 01:45:19;;;;;;;6.53;5.22;;;;;;;13.26;100.00;102036.97;1241988;23;20020;-92
2022/08/30 01:45:51;;;;;;;9.27;5.10;;;;;;;13.21;100.00;102034.09;1247951;23;20019;-92
2022/08/30 01:46:26;;;;;;;8.68;4.35;;;;;;;13.15;100.00;102034.88;1253645;23;20018;-92
2022/08/30 01:46:58;;;;;;;6.40;4.93;;;;;;;13.13;100.00;102039.59;1250048;23;20251;-93
2022/08/30 01:47:30;;;;;;;8.30;5.35;;;;;;;13.12;100.00;102039.78;1249985;23;20022;-92
2022/08/30 01:48:01;;;;;;;7.38;5.20;;;;;;;13.12;100.00;102040.63;1255709;23;20333;-92
2022/08/30 01:48:38;;;;;;;9.93;5.88;;;;;;;13.05;100.00;102038.97;1248144;23;20399;-92
2022/08/30 01:49:12;;;;;;;6.30;5.05;;;;;;;13.03;100.00;102035.66;1247965;23;20632;-92
2022/08/30 01:49:45;;;;;;;13.95;5.35;;;;;;;13.02;100.00;102039.38;1247915;23;20271;-92
2022/08/30 01:50:16;;;;;;;10.13;6.20;;;;;;;13.01;100.00;102041.22;1249842;23;20259;-92
2022/08/30 01:50:48;;;;;;;6.40;4.32;;;;;;;13.07;100.00;102039.59;1253675;23;20022;-92
2022/08/30 01:51:21;;;;;;;7.63;4.95;;;;;;;12.92;100.00;102037.09;1247863;23;20271;-92
2022/08/30 01:51:54;;;;;;;5.80;4.80;;;;;;;12.88;100.00;102034.00;1249938;23;20015;-92
2022/08/30 01:52:33;;;;;;;5.30;4.25;;;;;;;12.87;100.00;102032.34;1261863;23;20011;-91
2022/08/30 01:53:05;;;;;;;5.93;4.45;;;;;;;12.89;100.00;102029.47;1247634;23;20275;-92
2022/08/30 01:53:38;;;;;;;6.25;4.63;;;;;;;12.85;100.00;102038.91;1241951;23;20279;-92
2022/08/30 01:54:10;;;;;;;6.28;4.63;;;;;;;12.83;100.00;102035.63;1253718;23;20278;-92
2022/08/30 01:54:43;;;;;;;4.90;4.50;;;;;;;12.76;100.00;102034.78;1253686;23;20025;-92
2022/08/30 01:55:15;;;;;;;3.83;3.53;;;;;;;12.80;100.00;102030.69;1259693;23;20344;-92
2022/08/30 01:55:46;;;;;;;4.60;4.20;;;;;;;12.76;100.00;102030.25;1253886;23;20019;-92
2022/08/30 01:56:18;;;;;;;3.92;3.63;;;;;;;12.75;100.00;102033.13;1254091;23;20337;-92
2022/08/30 01:56:51;;;;;;;4.57;4.20;;;;;;;12.66;100.00;102036.00;1247857;23;20276;-92
2022/08/30 01:57:25;;;;;;;4.88;4.47;;;;;;;12.60;100.00;102036.81;1243890;23;20268;-92
2022/08/30 01:57:57;;;;;;;5.53;5.03;;;;;;;12.58;100.00;102048.69;1242048;23;20114;-92
2022/08/30 01:58:28;;;;;;;6.75;4.07;;;;;;;12.55;100.00;102041.06;1247820;23;20282;-92
2022/08/30 01:59:00;;;;;;;7.82;4.55;;;;;;;12.58;100.00;102033.47;1243955;23;20581;-92
2022/08/30 01:59:34;;;;;;;5.13;4.72;;;;;;;12.52;100.00;102033.47;1247405;23;20431;-92
2022/08/30 02:00:07;;;;;;;4.60;4.20;;;;;;;12.51;100.00;102037.97;1247801;23;20716;-92
2022/08/30 02:00:42;;;;;;;10.80;4.60;;;;;;;12.56;100.00;102032.84;1242137;23;20043;-92
2022/08/30 02:01:15;;;;;;;5.78;5.18;;;;;;;12.63;100.00;102031.06;1253570;23;20620;-92
2022/08/30 02:01:47;;;;;;;6.90;5.30;;;;;;;12.66;100.00;102036.00;1255774;23;20247;-92
2022/08/30 02:02:23;;;;;;;6.57;4.57;;;;;;;12.67;100.00;102032.28;1247810;23;20271;-91
2022/08/30 02:02:56;;;;;;;6.80;4.90;;;;;;;12.69;100.00;102035.59;1251493;23;20372;-92
2022/08/30 02:03:31;;;;;;;6.47;5.18;;;;;;;12.72;100.00;102038.88;1247912;23;20604;-91
2022/08/30 02:04:05;;;;;;;6.60;5.03;;;;;;;12.77;100.00;102042.59;1242423;23;20604;-91
2022/08/30 02:04:36;;;;;;;4.88;4.47;;;;;;;12.71;100.00;102037.25;1253725;23;20360;-92
2022/08/30 02:05:08;;;;;;;5.25;4.80;;;;;;;12.74;100.00;102036.84;1247727;23;20023;-92
2022/08/30 02:05:40;;;;;;;4.93;4.53;;;;;;;12.72;100.00;102033.53;1249989;23;20240;-92
2022/08/30 02:06:15;;;;;;;7.45;4.75;;;;;;;12.67;100.00;102036.81;1250133;23;20554;-92
2022/08/30 02:06:47;;;;;;;5.72;5.22;;;;;;;12.68;100.00;102039.28;1260060;23;20023;-92
2022/08/30 02:07:21;;;;;;;7.05;4.68;;;;;;;12.71;100.00;102037.25;1253567;23;20022;-92
2022/08/30 02:07:53;;;;;;;5.45;4.30;;;;;;;12.69;100.00;102035.59;1248085;23;20279;-92
2022/08/30 02:08:24;;;;;;;4.78;4.38;;;;;;;12.71;100.00;102040.72;1241868;23;20043;-92
2022/08/30 02:09:01;;;;;;;4.55;4.18;;;;;;;12.68;100.00;102036.63;1247791;23;20019;-91
2022/08/30 02:09:32;;;;;;;5.75;5.25;;;;;;;12.66;100.00;102036.00;1247716;23;20298;-92
2022/08/30 02:10:05;;;;;;;5.80;5.22;;;;;;;12.68;100.00;102033.13;1254038;23;20274;-91
2022/08/30 02:10:36;;;;;;;4.95;4.53;;;;;;;12.68;100.00;102039.28;1247473;23;20027;-91
2022/08/30 02:11:09;;;;;;;5.80;5.03;;;;;;;12.64;100.00;102038.03;1254165;23;20348;-92
2022/08/30 02:11:41;;;;;;;5.35;4.32;;;;;;;12.67;100.00;102037.66;1253752;23;20033;-91
2022/08/30 02:12:13;;;;;;;7.18;4.57;;;;;;;12.66;100.00;102035.16;1248049;23;20344;-92
2022/08/30 02:12:44;;;;;;;5.40;4.90;;;;;;;12.66;100.00;102035.16;1259753;23;20281;-91
2022/08/30 02:13:16;;;;;;;5.05;4.65;;;;;;;12.64;100.00;102027.34;1253617;23;20019;-92
2022/08/30 02:13:48;;;;;;;5.65;5.15;;;;;;;12.64;100.00;102032.69;1253776;23;20019;-91
2022/08/30 02:14:19;;;;;;;4.47;4.07;;;;;;;12.70;100.00;102031.06;1247952;23;20444;-92
2022/08/30 02:14:52;;;;;;;5.38;4.97;;;;;;;12.70;100.00;102039.09;1253713;23;20271;-92
2022/08/30 02:15:23;;;;;;;4.38;4.00;;;;;;;12.81;100.00;102032.31;1247934;23;20275;-92
2022/08/30 02:15:56;;;;;;;4.43;4.00;;;;;;;12.83;100.00;102035.63;1253797;23;20274;-92
2022/08/30 02:16:27;;;;;;;4.95;4.55;;;;;;;12.75;100.00;102033.13;1259919;23;20277;-92
2022/08/30 02:17:01;;;;;;;4.65;4.05;;;;;;;12.80;100.00;102036.03;1253991;23;20026;-91
2022/08/30 02:17:32;;;;;;;5.95;3.92;;;;;;;12.75;100.00;102038.47;1247931;23;20055;-92
2022/08/30 02:18:04;;;;;;;4.57;4.18;;;;;;;12.75;100.00;102033.13;1253826;23;20045;-92
2022/08/30 02:18:38;;;;;;;4.97;4.57;;;;;;;12.79;100.00;102034.38;1253638;23;20444;-91
2022/08/30 02:19:10;;;;;;;4.90;4.50;;;;;;;12.76;100.00;102037.44;1249939;23;20043;-92
2022/08/30 02:20:20;;;;;;;5.30;4.90;;;;;;;12.78;100.00;102038.06;1247954;23;20020;-92
2022/08/30 02:20:52;;;;;;;7.70;4.60;;;;;;;12.72;100.00;102034.38;1249968;23;20107;-91
2022/08/30 02:21:26;;;;;;;5.88;4.28;;;;;;;12.77;100.00;102039.94;1243503;23;20268;-92
2022/08/30 02:21:57;;;;;;;5.05;4.63;;;;;;;12.79;100.00;102039.72;1241990;23;20020;-92
2022/08/30 02:22:29;;;;;;;4.95;4.47;;;;;;;12.76;100.00;102040.13;1247858;23;20023;-91
2022/08/30 02:23:01;;;;;;;6.22;4.88;;;;;;;12.76;100.00;102045.47;1253764;23;20023;-91
2022/08/30 02:23:33;;;;;;;5.20;4.70;;;;;;;12.78;100.00;102035.41;1249908;23;20015;-91
2022/08/30 02:24:04;;;;;;;5.22;4.72;;;;;;;12.77;100.00;102037.25;1253763;23;20631;-92
2022/08/30 02:24:36;;;;;;;4.75;4.35;;;;;;;12.79;100.00;102029.03;1247955;23;20274;-91
2022/08/30 02:25:08;;;;;;;5.18;4.72;;;;;;;12.78;100.00;102044.25;1249839;23;20255;-91
2022/08/30 02:25:50;;;;;;;5.18;4.60;;;;;;;12.88;100.00;102036.69;1253722;23;20214;-91
2022/08/30 02:26:23;;;;;;;6.45;4.40;;;;;;;12.89;100.00;102042.84;1253881;23;20030;-92
2022/08/30 02:26:54;;;;;;;7.90;5.03;;;;;;;12.89;100.00;102040.19;1255987;23;20015;-92
2022/08/30 02:27:26;;;;;;;5.50;4.40;;;;;;;12.83;100.00;102047.13;1253720;23;20014;-91
2022/08/30 02:27:57;;;;;;;5.97;4.82;;;;;;;12.81;100.00;102040.34;1247821;23;20279;-92
2022/08/30 02:28:29;;;;;;;7.65;4.53;;;;;;;12.79;100.00;102042.41;1249852;23;20016;-92
2022/08/30 02:29:04;;;;;;;9.30;5.40;;;;;;;12.71;100.00;102038.06;1247681;23;20268;-91
2022/08/30 02:29:35;;;;;;;11.60;5.25;;;;;;;12.73;100.00;102040.53;1241927;23;20020;-91
2022/08/30 02:30:09;;;;;;;6.88;4.90;;;;;;;12.69;100.00;102040.13;1242007;23;20280;-92
2022/08/30 02:30:41;;;;;;;6.00;5.50;;;;;;;12.72;100.00;102034.38;1244144;23;20031;-92
2022/08/30 02:31:14;;;;;;;5.63;5.13;;;;;;;12.71;100.00;102037.25;1247672;23;20329;-92
2022/08/30 02:31:50;;;;;;;7.40;5.28;;;;;;;12.68;100.00;102039.28;1243926;23;20011;-91
2022/08/30 02:32:21;;;;;;;9.68;5.05;;;;;;;12.68;100.00;102044.63;1241923;23;20280;-92
2022/08/30 02:32:53;;;;;;;5.75;5.18;;;;;;;12.75;100.00;102043.81;1253541;23;20273;-91
2022/08/30 02:33:25;;;;;;;6.30;4.90;;;;;;;12.68;100.00;102039.28;1261789;23;20250;-92
2022/08/30 02:33:57;;;;;;;6.00;5.50;;;;;;;12.58;100.00;102043.34;1241930;23;20547;-92
2022/08/30 02:34:28;;;;;;;6.85;4.43;;;;;;;12.55;100.00;102041.06;1244084;23;20027;-91
2022/08/30 02:35:00;;;;;;;7.45;5.95;;;;;;;12.51;100.00;102043.31;1253702;23;20110;-91
2022/08/30 02:35:32;;;;;;;7.13;5.72;;;;;;;12.52;100.00;102042.31;1253922;23;20285;-91
2022/08/30 02:36:05;;;;;;;7.10;5.65;;;;;;;12.48;100.00;102043.72;1249810;23;20012;-91
2022/08/30 02:36:39;;;;;;;5.97;5.40;;;;;;;12.44;100.00;102037.13;1247885;23;20279;-91
2022/08/30 02:37:11;;;;;;;6.22;5.60;;;;;;;12.49;100.00;102041.88;1247937;23;20275;-91
2022/08/30 02:37:42;;;;;;;5.72;5.03;;;;;;;12.48;100.00;102042.91;1249853;23;20289;-92
2022/08/30 02:38:14;;;;;;;7.65;5.20;;;;;;;12.42;100.00;102039.19;1247765;23;20275;-92